Penrod, Kentucky
Current Conditions -  °F | °C
As of 12:35 PM on Wednesday 26 Nov 2014 (Local Time) from K2I0 Reporting Station
Clear Clear  
Wind Chill: 40°   Ceiling: Unl
Heat Index: 45°   Visibility: 10mi
Dew Point: 28°   Wind: 8mph
Humidity: 51%   Direction: 120°ESE
Pressure: 30.04"   Gusts: NA
Location:  37.11°N, 87°W
Report Text: K2I0 261835Z AUTO 12007KT 10SM CLR 07/M02 A3004 RMK AO2 T00711025
Loading
Personal Weather Stations






























Interactive Weather Map New forecast layout! Learn more

10-Day Weather Forecast

Advertisements
Track Severe Weather on mobile